sensor_id;sensor_type;location;lat;lon;timestamp;P1;durP1;ratioP1;P2;durP2;ratioP2
44197;SDS011;30157;55.512;37.764;2023-03-01T00:01:48;1.83;;;0.80;;
44197;SDS011;30157;55.512;37.764;2023-03-01T00:04:13;2.58;;;0.90;;
44197;SDS011;30157;55.512;37.764;2023-03-01T00:06:39;2.72;;;1.10;;
44197;SDS011;30157;55.512;37.764;2023-03-01T00:09:05;3.40;;;1.10;;
44197;SDS011;30157;55.512;37.764;2023-03-01T00:11:31;2.85;;;1.25;;
44197;SDS011;30157;55.512;37.764;2023-03-01T00:13:59;6.53;;;1.98;;
44197;SDS011;30157;55.512;37.764;2023-03-01T00:16:34;5.70;;;1.90;;
44197;SDS011;30157;55.512;37.764;2023-03-01T00:19:03;6.35;;;2.13;;
44197;SDS011;30157;55.512;37.764;2023-03-01T00:21:29;5.90;;;2.30;;
44197;SDS011;30157;55.512;37.764;2023-03-01T00:23:55;4.88;;;1.80;;
44197;SDS011;30157;55.512;37.764;2023-03-01T00:26:22;4.47;;;1.80;;
44197;SDS011;30157;55.512;37.764;2023-03-01T00:28:48;4.55;;;1.85;;
44197;SDS011;30157;55.512;37.764;2023-03-01T00:31:15;4.00;;;1.27;;
44197;SDS011;30157;55.512;37.764;2023-03-01T00:33:43;3.60;;;1.23;;
44197;SDS011;30157;55.512;37.764;2023-03-01T00:36:10;4.38;;;1.17;;
44197;SDS011;30157;55.512;37.764;2023-03-01T00:38:38;3.67;;;1.13;;
44197;SDS011;30157;55.512;37.764;2023-03-01T00:41:05;5.38;;;1.40;;
44197;SDS011;30157;55.512;37.764;2023-03-01T00:43:32;2.97;;;1.02;;
44197;SDS011;30157;55.512;37.764;2023-03-01T00:46:05;2.05;;;0.88;;
44197;SDS011;30157;55.512;37.764;2023-03-01T00:48:35;1.98;;;0.98;;
44197;SDS011;30157;55.512;37.764;2023-03-01T00:51:11;1.90;;;0.93;;
44197;SDS011;30157;55.512;37.764;2023-03-01T00:53:40;3.67;;;0.90;;
44197;SDS011;30157;55.512;37.764;2023-03-01T00:56:06;2.03;;;0.80;;
44197;SDS011;30157;55.512;37.764;2023-03-01T00:58:34;2.40;;;0.90;;
44197;SDS011;30157;55.512;37.764;2023-03-01T01:01:00;5.40;;;1.50;;
44197;SDS011;30157;55.512;37.764;2023-03-01T01:03:32;5.97;;;1.58;;
44197;SDS011;30157;55.512;37.764;2023-03-01T01:05:57;3.95;;;1.13;;
44197;SDS011;30157;55.512;37.764;2023-03-01T01:08:23;4.75;;;1.48;;
44197;SDS011;30157;55.512;37.764;2023-03-01T01:10:49;8.07;;;1.98;;
44197;SDS011;30157;55.512;37.764;2023-03-01T01:13:14;4.45;;;1.40;;
44197;SDS011;30157;55.512;37.764;2023-03-01T01:15:40;7.70;;;1.80;;
44197;SDS011;30157;55.512;37.764;2023-03-01T01:18:06;5.65;;;1.33;;
44197;SDS011;30157;55.512;37.764;2023-03-01T01:20:34;5.40;;;1.30;;
44197;SDS011;30157;55.512;37.764;2023-03-01T01:23:01;4.65;;;1.77;;
44197;SDS011;30157;55.512;37.764;2023-03-01T01:25:27;3.55;;;1.20;;
44197;SDS011;30157;55.512;37.764;2023-03-01T01:27:53;8.07;;;1.83;;
44197;SDS011;30157;55.512;37.764;2023-03-01T01:30:18;6.85;;;1.40;;
44197;SDS011;30157;55.512;37.764;2023-03-01T01:32:44;6.03;;;1.40;;
44197;SDS011;30157;55.512;37.764;2023-03-01T01:35:10;8.75;;;2.10;;
44197;SDS011;30157;55.512;37.764;2023-03-01T01:37:35;9.23;;;2.35;;
44197;SDS011;30157;55.512;37.764;2023-03-01T01:40:01;11.95;;;2.50;;
44197;SDS011;30157;55.512;37.764;2023-03-01T01:42:31;15.20;;;2.58;;
44197;SDS011;30157;55.512;37.764;2023-03-01T01:50:20;15.85;;;3.42;;
44197;SDS011;30157;55.512;37.764;2023-03-01T01:52:48;11.02;;;2.60;;
44197;SDS011;30157;55.512;37.764;2023-03-01T01:55:16;9.57;;;1.90;;
44197;SDS011;30157;55.512;37.764;2023-03-01T01:57:51;8.80;;;2.05;;
44197;SDS011;30157;55.512;37.764;2023-03-01T02:00:21;6.18;;;1.95;;
44197;SDS011;30157;55.512;37.764;2023-03-01T02:02:50;8.13;;;1.90;;
44197;SDS011;30157;55.512;37.764;2023-03-01T02:05:22;16.80;;;3.90;;
44197;SDS011;30157;55.512;37.764;2023-03-01T02:07:53;12.25;;;5.22;;
44197;SDS011;30157;55.512;37.764;2023-03-01T02:10:21;18.95;;;6.00;;
44197;SDS011;30157;55.512;37.764;2023-03-01T02:12:48;14.27;;;5.57;;
44197;SDS011;30157;55.512;37.764;2023-03-01T02:15:35;9.27;;;3.03;;
44197;SDS011;30157;55.512;37.764;2023-03-01T02:18:02;4.97;;;2.85;;
44197;SDS011;30157;55.512;37.764;2023-03-01T02:20:34;4.55;;;1.90;;
44197;SDS011;30157;55.512;37.764;2023-03-01T02:23:08;4.07;;;1.63;;
44197;SDS011;30157;55.512;37.764;2023-03-01T02:30:43;6.45;;;2.40;;
44197;SDS011;30157;55.512;37.764;2023-03-01T02:33:30;7.25;;;2.78;;
44197;SDS011;30157;55.512;37.764;2023-03-01T02:36:01;5.07;;;2.33;;
44197;SDS011;30157;55.512;37.764;2023-03-01T02:38:32;7.72;;;1.95;;
44197;SDS011;30157;55.512;37.764;2023-03-01T02:40:58;5.55;;;1.40;;
44197;SDS011;30157;55.512;37.764;2023-03-01T02:43:26;5.97;;;1.65;;
44197;SDS011;30157;55.512;37.764;2023-03-01T02:45:57;3.50;;;1.65;;
44197;SDS011;30157;55.512;37.764;2023-03-01T02:48:38;5.00;;;1.25;;
44197;SDS011;30157;55.512;37.764;2023-03-01T02:51:09;3.38;;;0.90;;
44197;SDS011;30157;55.512;37.764;2023-03-01T02:56:36;2.65;;;0.90;;
44197;SDS011;30157;55.512;37.764;2023-03-01T02:59:02;2.03;;;1.00;;
44197;SDS011;30157;55.512;37.764;2023-03-01T03:01:29;2.35;;;0.90;;
44197;SDS011;30157;55.512;37.764;2023-03-01T03:04:08;2.92;;;0.80;;
44197;SDS011;30157;55.512;37.764;2023-03-01T03:06:37;3.95;;;0.90;;
44197;SDS011;30157;55.512;37.764;2023-03-01T03:09:03;2.92;;;1.08;;
44197;SDS011;30157;55.512;37.764;2023-03-01T03:11:29;1.80;;;0.73;;
44197;SDS011;30157;55.512;37.764;2023-03-01T03:13:57;1.83;;;0.70;;
44197;SDS011;30157;55.512;37.764;2023-03-01T03:16:23;4.97;;;1.05;;
44197;SDS011;30157;55.512;37.764;2023-03-01T03:18:50;3.55;;;0.93;;
44197;SDS011;30157;55.512;37.764;2023-03-01T03:21:15;1.70;;;0.70;;
44197;SDS011;30157;55.512;37.764;2023-03-01T03:23:42;2.13;;;0.90;;
44197;SDS011;30157;55.512;37.764;2023-03-01T03:26:08;2.00;;;0.73;;
44197;SDS011;30157;55.512;37.764;2023-03-01T03:28:34;2.42;;;0.90;;
44197;SDS011;30157;55.512;37.764;2023-03-01T03:31:00;3.72;;;1.02;;
44197;SDS011;30157;55.512;37.764;2023-03-01T03:33:29;2.42;;;1.13;;
44197;SDS011;30157;55.512;37.764;2023-03-01T03:35:55;3.65;;;1.77;;
44197;SDS011;30157;55.512;37.764;2023-03-01T03:38:21;2.72;;;1.23;;
44197;SDS011;30157;55.512;37.764;2023-03-01T03:40:52;2.25;;;1.02;;
44197;SDS011;30157;55.512;37.764;2023-03-01T03:43:28;2.17;;;0.82;;
44197;SDS011;30157;55.512;37.764;2023-03-01T03:45:55;3.35;;;0.90;;
44197;SDS011;30157;55.512;37.764;2023-03-01T03:48:22;4.20;;;0.80;;
44197;SDS011;30157;55.512;37.764;2023-03-01T03:50:49;2.50;;;0.90;;
44197;SDS011;30157;55.512;37.764;2023-03-01T03:53:17;2.45;;;0.88;;
44197;SDS011;30157;55.512;37.764;2023-03-01T03:55:43;2.92;;;1.10;;
44197;SDS011;30157;55.512;37.764;2023-03-01T03:58:10;2.38;;;0.88;;
44197;SDS011;30157;55.512;37.764;2023-03-01T04:03:03;2.67;;;0.90;;
44197;SDS011;30157;55.512;37.764;2023-03-01T04:05:29;4.28;;;1.10;;
44197;SDS011;30157;55.512;37.764;2023-03-01T04:07:55;5.65;;;1.48;;
44197;SDS011;30157;55.512;37.764;2023-03-01T04:10:33;4.68;;;1.38;;
44197;SDS011;30157;55.512;37.764;2023-03-01T04:13:01;4.40;;;1.25;;
44197;SDS011;30157;55.512;37.764;2023-03-01T04:15:27;4.65;;;0.90;;
44197;SDS011;30157;55.512;37.764;2023-03-01T04:17:54;2.97;;;1.00;;
44197;SDS011;30157;55.512;37.764;2023-03-01T04:20:21;3.05;;;1.17;;
44197;SDS011;30157;55.512;37.764;2023-03-01T04:22:52;2.60;;;1.20;;
44197;SDS011;30157;55.512;37.764;2023-03-01T04:25:39;2.25;;;1.20;;
44197;SDS011;30157;55.512;37.764;2023-03-01T04:28:08;5.10;;;1.30;;
44197;SDS011;30157;55.512;37.764;2023-03-01T04:30:35;4.15;;;2.10;;
44197;SDS011;30157;55.512;37.764;2023-03-01T04:33:02;4.07;;;1.10;;
44197;SDS011;30157;55.512;37.764;2023-03-01T04:35:29;2.22;;;1.00;;
44197;SDS011;30157;55.512;37.764;2023-03-01T04:37:55;4.22;;;1.33;;
44197;SDS011;30157;55.512;37.764;2023-03-01T04:40:21;3.72;;;1.17;;
44197;SDS011;30157;55.512;37.764;2023-03-01T04:42:47;2.47;;;1.10;;
44197;SDS011;30157;55.512;37.764;2023-03-01T04:45:12;3.03;;;1.30;;
44197;SDS011;30157;55.512;37.764;2023-03-01T04:47:39;2.75;;;1.23;;
44197;SDS011;30157;55.512;37.764;2023-03-01T04:50:10;1.30;;;0.90;;
44197;SDS011;30157;55.512;37.764;2023-03-01T04:52:37;4.35;;;1.17;;
44197;SDS011;30157;55.512;37.764;2023-03-01T04:55:03;2.90;;;1.17;;
44197;SDS011;30157;55.512;37.764;2023-03-01T04:57:29;2.08;;;1.10;;
44197;SDS011;30157;55.512;37.764;2023-03-01T04:59:55;1.90;;;1.00;;
44197;SDS011;30157;55.512;37.764;2023-03-01T05:02:21;2.88;;;1.50;;
44197;SDS011;30157;55.512;37.764;2023-03-01T05:04:47;4.10;;;1.75;;
44197;SDS011;30157;55.512;37.764;2023-03-01T05:07:12;3.03;;;1.10;;
44197;SDS011;30157;55.512;37.764;2023-03-01T05:09:45;3.78;;;1.48;;
44197;SDS011;30157;55.512;37.764;2023-03-01T05:12:11;5.25;;;1.50;;
44197;SDS011;30157;55.512;37.764;2023-03-01T05:14:37;2.88;;;1.30;;
44197;SDS011;30157;55.512;37.764;2023-03-01T05:17:04;8.00;;;2.53;;
44197;SDS011;30157;55.512;37.764;2023-03-01T05:19:30;5.32;;;2.40;;
44197;SDS011;30157;55.512;37.764;2023-03-01T05:21:59;3.10;;;1.52;;
44197;SDS011;30157;55.512;37.764;2023-03-01T05:24:31;2.63;;;1.93;;
44197;SDS011;30157;55.512;37.764;2023-03-01T05:26:58;3.08;;;1.58;;
44197;SDS011;30157;55.512;37.764;2023-03-01T05:29:25;2.60;;;1.08;;
44197;SDS011;30157;55.512;37.764;2023-03-01T05:31:55;2.50;;;1.00;;
44197;SDS011;30157;55.512;37.764;2023-03-01T05:34:33;4.65;;;1.10;;
44197;SDS011;30157;55.512;37.764;2023-03-01T05:37:00;2.22;;;1.17;;
44197;SDS011;30157;55.512;37.764;2023-03-01T05:39:27;3.63;;;1.27;;
44197;SDS011;30157;55.512;37.764;2023-03-01T05:41:55;2.85;;;0.98;;
44197;SDS011;30157;55.512;37.764;2023-03-01T05:44:22;2.08;;;1.10;;
44197;SDS011;30157;55.512;37.764;2023-03-01T05:46:49;4.28;;;1.40;;
44197;SDS011;30157;55.512;37.764;2023-03-01T05:49:15;2.58;;;1.27;;
44197;SDS011;30157;55.512;37.764;2023-03-01T05:51:42;3.83;;;1.48;;
44197;SDS011;30157;55.512;37.764;2023-03-01T05:54:09;3.55;;;1.60;;
44197;SDS011;30157;55.512;37.764;2023-03-01T05:56:36;4.50;;;2.00;;
44197;SDS011;30157;55.512;37.764;2023-03-01T05:59:02;2.38;;;1.40;;
44197;SDS011;30157;55.512;37.764;2023-03-01T06:01:30;4.60;;;2.13;;
44197;SDS011;30157;55.512;37.764;2023-03-01T06:03:57;6.07;;;2.10;;
44197;SDS011;30157;55.512;37.764;2023-03-01T06:06:23;4.93;;;1.83;;
44197;SDS011;30157;55.512;37.764;2023-03-01T06:08:49;6.28;;;2.22;;
44197;SDS011;30157;55.512;37.764;2023-03-01T06:11:15;3.10;;;1.75;;
44197;SDS011;30157;55.512;37.764;2023-03-01T06:13:42;3.25;;;1.60;;
44197;SDS011;30157;55.512;37.764;2023-03-01T06:16:08;5.35;;;1.90;;
44197;SDS011;30157;55.512;37.764;2023-03-01T06:18:34;3.88;;;2.03;;
44197;SDS011;30157;55.512;37.764;2023-03-01T06:21:00;3.75;;;1.65;;
44197;SDS011;30157;55.512;37.764;2023-03-01T06:23:26;4.85;;;1.73;;
44197;SDS011;30157;55.512;37.764;2023-03-01T06:25:51;2.55;;;1.30;;
44197;SDS011;30157;55.512;37.764;2023-03-01T06:28:18;2.90;;;1.58;;
44197;SDS011;30157;55.512;37.764;2023-03-01T06:30:44;2.17;;;1.27;;
44197;SDS011;30157;55.512;37.764;2023-03-01T06:33:10;4.65;;;1.70;;
44197;SDS011;30157;55.512;37.764;2023-03-01T06:35:35;4.03;;;1.80;;
44197;SDS011;30157;55.512;37.764;2023-03-01T06:38:02;3.60;;;1.40;;
44197;SDS011;30157;55.512;37.764;2023-03-01T06:40:29;4.32;;;1.63;;
44197;SDS011;30157;55.512;37.764;2023-03-01T06:42:56;3.90;;;2.00;;
44197;SDS011;30157;55.512;37.764;2023-03-01T06:45:23;4.57;;;1.70;;
44197;SDS011;30157;55.512;37.764;2023-03-01T06:47:49;4.60;;;1.83;;
44197;SDS011;30157;55.512;37.764;2023-03-01T06:50:16;3.47;;;1.75;;
44197;SDS011;30157;55.512;37.764;2023-03-01T06:52:42;5.97;;;2.70;;
44197;SDS011;30157;55.512;37.764;2023-03-01T06:55:10;5.18;;;2.50;;
44197;SDS011;30157;55.512;37.764;2023-03-01T06:57:38;5.70;;;2.70;;
44197;SDS011;30157;55.512;37.764;2023-03-01T07:00:04;5.30;;;2.28;;
44197;SDS011;30157;55.512;37.764;2023-03-01T07:02:31;4.30;;;1.73;;
44197;SDS011;30157;55.512;37.764;2023-03-01T07:04:57;3.97;;;1.92;;
44197;SDS011;30157;55.512;37.764;2023-03-01T07:07:23;3.72;;;1.85;;
44197;SDS011;30157;55.512;37.764;2023-03-01T07:09:49;3.95;;;1.70;;
44197;SDS011;30157;55.512;37.764;2023-03-01T07:12:15;6.90;;;2.70;;
44197;SDS011;30157;55.512;37.764;2023-03-01T07:14:41;3.90;;;1.67;;
44197;SDS011;30157;55.512;37.764;2023-03-01T07:17:06;3.90;;;1.75;;
44197;SDS011;30157;55.512;37.764;2023-03-01T07:19:32;4.15;;;2.00;;
44197;SDS011;30157;55.512;37.764;2023-03-01T07:21:58;5.35;;;1.83;;
44197;SDS011;30157;55.512;37.764;2023-03-01T07:24:24;4.40;;;1.88;;
44197;SDS011;30157;55.512;37.764;2023-03-01T07:26:50;6.00;;;2.30;;
44197;SDS011;30157;55.512;37.764;2023-03-01T07:29:16;5.57;;;2.33;;
44197;SDS011;30157;55.512;37.764;2023-03-01T07:31:43;5.30;;;2.20;;
44197;SDS011;30157;55.512;37.764;2023-03-01T07:34:09;5.28;;;2.08;;
44197;SDS011;30157;55.512;37.764;2023-03-01T07:36:36;3.72;;;1.80;;
44197;SDS011;30157;55.512;37.764;2023-03-01T07:39:02;5.22;;;2.10;;
44197;SDS011;30157;55.512;37.764;2023-03-01T07:41:28;7.32;;;3.88;;
44197;SDS011;30157;55.512;37.764;2023-03-01T07:43:55;10.02;;;5.57;;
44197;SDS011;30157;55.512;37.764;2023-03-01T07:46:21;5.80;;;3.17;;
44197;SDS011;30157;55.512;37.764;2023-03-01T07:48:47;5.32;;;2.33;;
44197;SDS011;30157;55.512;37.764;2023-03-01T07:51:13;4.82;;;1.90;;
44197;SDS011;30157;55.512;37.764;2023-03-01T07:53:39;3.30;;;1.90;;
44197;SDS011;30157;55.512;37.764;2023-03-01T07:56:11;4.57;;;1.80;;
44197;SDS011;30157;55.512;37.764;2023-03-01T07:58:39;5.07;;;1.95;;
44197;SDS011;30157;55.512;37.764;2023-03-01T08:01:09;2.20;;;1.55;;
44197;SDS011;30157;55.512;37.764;2023-03-01T08:03:40;4.70;;;2.05;;
44197;SDS011;30157;55.512;37.764;2023-03-01T08:06:07;5.53;;;2.55;;
44197;SDS011;30157;55.512;37.764;2023-03-01T08:08:34;4.78;;;2.00;;
44197;SDS011;30157;55.512;37.764;2023-03-01T08:11:02;6.25;;;2.20;;
44197;SDS011;30157;55.512;37.764;2023-03-01T08:13:31;3.42;;;2.00;;
44197;SDS011;30157;55.512;37.764;2023-03-01T08:16:02;4.93;;;1.83;;
44197;SDS011;30157;55.512;37.764;2023-03-01T08:18:38;3.10;;;1.40;;
44197;SDS011;30157;55.512;37.764;2023-03-01T08:21:21;5.22;;;1.80;;
44197;SDS011;30157;55.512;37.764;2023-03-01T08:23:49;4.88;;;1.48;;
44197;SDS011;30157;55.512;37.764;2023-03-01T08:26:17;3.65;;;1.33;;
44197;SDS011;30157;55.512;37.764;2023-03-01T08:28:44;5.60;;;1.40;;
44197;SDS011;30157;55.512;37.764;2023-03-01T08:31:24;5.63;;;1.73;;
44197;SDS011;30157;55.512;37.764;2023-03-01T08:33:53;4.50;;;2.35;;
44197;SDS011;30157;55.512;37.764;2023-03-01T08:36:25;3.22;;;1.42;;
44197;SDS011;30157;55.512;37.764;2023-03-01T08:38:52;3.83;;;1.52;;
44197;SDS011;30157;55.512;37.764;2023-03-01T08:41:17;3.45;;;1.42;;
44197;SDS011;30157;55.512;37.764;2023-03-01T08:43:43;3.20;;;1.33;;
44197;SDS011;30157;55.512;37.764;2023-03-01T08:46:09;3.63;;;1.42;;
44197;SDS011;30157;55.512;37.764;2023-03-01T08:48:35;3.55;;;1.30;;
44197;SDS011;30157;55.512;37.764;2023-03-01T08:51:13;2.58;;;1.30;;
44197;SDS011;30157;55.512;37.764;2023-03-01T08:53:41;6.72;;;3.10;;
44197;SDS011;30157;55.512;37.764;2023-03-01T08:56:07;3.75;;;1.52;;
44197;SDS011;30157;55.512;37.764;2023-03-01T08:58:33;3.65;;;1.40;;
44197;SDS011;30157;55.512;37.764;2023-03-01T09:01:07;2.42;;;1.10;;
44197;SDS011;30157;55.512;37.764;2023-03-01T09:03:34;5.78;;;2.58;;
44197;SDS011;30157;55.512;37.764;2023-03-01T09:06:00;2.30;;;1.40;;
44197;SDS011;30157;55.512;37.764;2023-03-01T09:08:27;2.53;;;1.20;;
44197;SDS011;30157;55.512;37.764;2023-03-01T09:10:53;3.00;;;1.27;;
44197;SDS011;30157;55.512;37.764;2023-03-01T09:13:19;2.22;;;1.10;;
44197;SDS011;30157;55.512;37.764;2023-03-01T09:15:44;4.70;;;2.13;;
44197;SDS011;30157;55.512;37.764;2023-03-01T09:18:10;5.63;;;2.65;;
44197;SDS011;30157;55.512;37.764;2023-03-01T09:20:36;14.48;;;5.63;;
44197;SDS011;30157;55.512;37.764;2023-03-01T09:23:01;3.58;;;1.60;;
44197;SDS011;30157;55.512;37.764;2023-03-01T09:25:27;3.45;;;1.48;;
44197;SDS011;30157;55.512;37.764;2023-03-01T09:27:53;3.83;;;1.40;;
44197;SDS011;30157;55.512;37.764;2023-03-01T09:30:20;6.25;;;2.80;;
44197;SDS011;30157;55.512;37.764;2023-03-01T09:32:47;5.18;;;2.00;;
44197;SDS011;30157;55.512;37.764;2023-03-01T09:35:13;6.00;;;2.50;;
44197;SDS011;30157;55.512;37.764;2023-03-01T09:37:39;3.78;;;1.60;;
44197;SDS011;30157;55.512;37.764;2023-03-01T09:40:11;4.38;;;1.75;;
44197;SDS011;30157;55.512;37.764;2023-03-01T09:42:45;4.05;;;1.30;;
44197;SDS011;30157;55.512;37.764;2023-03-01T09:45:19;7.68;;;2.15;;
44197;SDS011;30157;55.512;37.764;2023-03-01T09:47:58;6.82;;;2.58;;
44197;SDS011;30157;55.512;37.764;2023-03-01T09:50:26;6.60;;;2.95;;
44197;SDS011;30157;55.512;37.764;2023-03-01T09:58:06;4.15;;;1.75;;
44197;SDS011;30157;55.512;37.764;2023-03-01T10:00:43;3.50;;;1.48;;
44197;SDS011;30157;55.512;37.764;2023-03-01T10:03:26;8.25;;;2.20;;
44197;SDS011;30157;55.512;37.764;2023-03-01T10:05:56;7.03;;;3.28;;
44197;SDS011;30157;55.512;37.764;2023-03-01T10:11:20;4.72;;;2.30;;
44197;SDS011;30157;55.512;37.764;2023-03-01T10:14:02;5.68;;;1.85;;
44197;SDS011;30157;55.512;37.764;2023-03-01T10:19:32;3.65;;;1.60;;
44197;SDS011;30157;55.512;37.764;2023-03-01T10:24:53;4.18;;;1.52;;
44197;SDS011;30157;55.512;37.764;2023-03-01T10:27:28;2.75;;;1.25;;
44197;SDS011;30157;55.512;37.764;2023-03-01T10:30:22;2.92;;;0.98;;
44197;SDS011;30157;55.512;37.764;2023-03-01T10:32:54;3.92;;;1.70;;
44197;SDS011;30157;55.512;37.764;2023-03-01T10:35:26;3.80;;;1.73;;
44197;SDS011;30157;55.512;37.764;2023-03-01T10:40:27;5.30;;;2.05;;
44197;SDS011;30157;55.512;37.764;2023-03-01T10:42:53;9.57;;;4.57;;
44197;SDS011;30157;55.512;37.764;2023-03-01T10:50:45;1.90;;;1.20;;
44197;SDS011;30157;55.512;37.764;2023-03-01T10:53:26;3.28;;;1.63;;
44197;SDS011;30157;55.512;37.764;2023-03-01T10:56:11;2.00;;;1.02;;
44197;SDS011;30157;55.512;37.764;2023-03-01T10:58:41;3.15;;;1.27;;
44197;SDS011;30157;55.512;37.764;2023-03-01T11:01:25;3.75;;;1.10;;
44197;SDS011;30157;55.512;37.764;2023-03-01T11:06:41;3.15;;;1.10;;
44197;SDS011;30157;55.512;37.764;2023-03-01T11:11:52;3.45;;;1.20;;
44197;SDS011;30157;55.512;37.764;2023-03-01T11:16:48;2.85;;;1.40;;
44197;SDS011;30157;55.512;37.764;2023-03-01T11:19:23;4.82;;;2.30;;
44197;SDS011;30157;55.512;37.764;2023-03-01T11:22:22;5.38;;;2.08;;
44197;SDS011;30157;55.512;37.764;2023-03-01T11:24:50;3.80;;;1.40;;
44197;SDS011;30157;55.512;37.764;2023-03-01T11:27:25;4.45;;;2.17;;
44197;SDS011;30157;55.512;37.764;2023-03-01T11:32:33;2.92;;;1.58;;
44197;SDS011;30157;55.512;37.764;2023-03-01T11:40:37;5.80;;;2.60;;
44197;SDS011;30157;55.512;37.764;2023-03-01T11:47:32;4.85;;;1.85;;
44197;SDS011;30157;55.512;37.764;2023-03-01T11:49:41;5.88;;;2.15;;
44197;SDS011;30157;55.512;37.764;2023-03-01T11:57:58;4.75;;;1.60;;
44197;SDS011;30157;55.512;37.764;2023-03-01T12:03:52;3.90;;;1.40;;
44197;SDS011;30157;55.512;37.764;2023-03-01T12:06:47;3.78;;;1.52;;
44197;SDS011;30157;55.512;37.764;2023-03-01T12:12:29;2.60;;;1.20;;
44197;SDS011;30157;55.512;37.764;2023-03-01T12:15:26;3.17;;;1.40;;
44197;SDS011;30157;55.512;37.764;2023-03-01T12:27:32;4.32;;;1.20;;
44197;SDS011;30157;55.512;37.764;2023-03-01T12:29:57;3.38;;;1.20;;
44197;SDS011;30157;55.512;37.764;2023-03-01T12:35:18;4.55;;;1.58;;
44197;SDS011;30157;55.512;37.764;2023-03-01T12:38:05;5.35;;;1.60;;
44197;SDS011;30157;55.512;37.764;2023-03-01T12:40:50;4.57;;;1.40;;
44197;SDS011;30157;55.512;37.764;2023-03-01T12:43:39;2.40;;;1.30;;
44197;SDS011;30157;55.512;37.764;2023-03-01T12:49:32;5.35;;;1.52;;
44197;SDS011;30157;55.512;37.764;2023-03-01T12:54:47;3.35;;;1.70;;
44197;SDS011;30157;55.512;37.764;2023-03-01T13:02:40;2.40;;;1.25;;
44197;SDS011;30157;55.512;37.764;2023-03-01T13:07:50;3.15;;;1.42;;
44197;SDS011;30157;55.512;37.764;2023-03-01T13:10:29;4.22;;;1.80;;
44197;SDS011;30157;55.512;37.764;2023-03-01T13:15:49;5.60;;;2.67;;
44197;SDS011;30157;55.512;37.764;2023-03-01T13:20:51;2.60;;;1.35;;
44197;SDS011;30157;55.512;37.764;2023-03-01T13:36:08;4.65;;;1.50;;
44197;SDS011;30157;55.512;37.764;2023-03-01T13:38:46;5.53;;;1.80;;
44197;SDS011;30157;55.512;37.764;2023-03-01T13:49:22;2.42;;;0.93;;
44197;SDS011;30157;55.512;37.764;2023-03-01T13:52:06;4.07;;;1.38;;
44197;SDS011;30157;55.512;37.764;2023-03-01T13:54:59;2.45;;;1.30;;
44197;SDS011;30157;55.512;37.764;2023-03-01T13:57:36;3.45;;;1.00;;
44197;SDS011;30157;55.512;37.764;2023-03-01T14:00:07;3.25;;;1.70;;
44197;SDS011;30157;55.512;37.764;2023-03-01T14:03:08;2.33;;;0.75;;
44197;SDS011;30157;55.512;37.764;2023-03-01T14:05:34;4.03;;;1.50;;
44197;SDS011;30157;55.512;37.764;2023-03-01T14:08:02;4.38;;;1.58;;
44197;SDS011;30157;55.512;37.764;2023-03-01T14:10:44;3.33;;;1.17;;
44197;SDS011;30157;55.512;37.764;2023-03-01T14:16:20;2.83;;;1.20;;
44197;SDS011;30157;55.512;37.764;2023-03-01T14:30:33;2.03;;;1.05;;
44197;SDS011;30157;55.512;37.764;2023-03-01T14:33:04;6.68;;;1.50;;
44197;SDS011;30157;55.512;37.764;2023-03-01T14:35:33;3.05;;;1.23;;
44197;SDS011;30157;55.512;37.764;2023-03-01T14:38:00;1.20;;;0.70;;
44197;SDS011;30157;55.512;37.764;2023-03-01T14:40:28;4.22;;;1.23;;
44197;SDS011;30157;55.512;37.764;2023-03-01T14:42:56;4.13;;;1.35;;
44197;SDS011;30157;55.512;37.764;2023-03-01T14:45:24;3.92;;;2.30;;
44197;SDS011;30157;55.512;37.764;2023-03-01T14:47:52;1.40;;;0.93;;
44197;SDS011;30157;55.512;37.764;2023-03-01T14:50:27;3.25;;;1.20;;
44197;SDS011;30157;55.512;37.764;2023-03-01T14:53:02;3.35;;;1.25;;
44197;SDS011;30157;55.512;37.764;2023-03-01T14:58:03;3.33;;;1.50;;
44197;SDS011;30157;55.512;37.764;2023-03-01T15:00:31;7.50;;;3.30;;
44197;SDS011;30157;55.512;37.764;2023-03-01T15:03:11;6.25;;;2.90;;
44197;SDS011;30157;55.512;37.764;2023-03-01T15:05:43;4.15;;;2.70;;
44197;SDS011;30157;55.512;37.764;2023-03-01T15:08:16;6.63;;;3.28;;
44197;SDS011;30157;55.512;37.764;2023-03-01T15:10:56;4.75;;;2.67;;
44197;SDS011;30157;55.512;37.764;2023-03-01T15:13:41;2.63;;;1.17;;
44197;SDS011;30157;55.512;37.764;2023-03-01T15:16:09;6.82;;;2.20;;
44197;SDS011;30157;55.512;37.764;2023-03-01T15:18:37;2.88;;;1.35;;
44197;SDS011;30157;55.512;37.764;2023-03-01T15:21:31;3.47;;;1.27;;
44197;SDS011;30157;55.512;37.764;2023-03-01T15:24:00;2.35;;;1.10;;
44197;SDS011;30157;55.512;37.764;2023-03-01T15:26:45;5.43;;;1.10;;
44197;SDS011;30157;55.512;37.764;2023-03-01T15:29:19;3.03;;;1.00;;
44197;SDS011;30157;55.512;37.764;2023-03-01T15:31:57;3.33;;;1.23;;
44197;SDS011;30157;55.512;37.764;2023-03-01T15:34:35;3.83;;;1.50;;
44197;SDS011;30157;55.512;37.764;2023-03-01T15:37:03;5.40;;;2.30;;
44197;SDS011;30157;55.512;37.764;2023-03-01T15:39:40;7.20;;;3.42;;
44197;SDS011;30157;55.512;37.764;2023-03-01T15:42:35;3.63;;;1.58;;
44197;SDS011;30157;55.512;37.764;2023-03-01T15:47:51;3.45;;;1.55;;
44197;SDS011;30157;55.512;37.764;2023-03-01T15:50:29;3.55;;;1.80;;
44197;SDS011;30157;55.512;37.764;2023-03-01T15:53:00;5.25;;;2.10;;
44197;SDS011;30157;55.512;37.764;2023-03-01T15:55:31;4.95;;;1.70;;
44197;SDS011;30157;55.512;37.764;2023-03-01T15:57:59;3.95;;;1.50;;
44197;SDS011;30157;55.512;37.764;2023-03-01T16:00:27;5.25;;;1.55;;
44197;SDS011;30157;55.512;37.764;2023-03-01T16:02:54;4.35;;;1.50;;
44197;SDS011;30157;55.512;37.764;2023-03-01T16:07:50;6.10;;;1.42;;
44197;SDS011;30157;55.512;37.764;2023-03-01T16:10:17;3.72;;;1.58;;
44197;SDS011;30157;55.512;37.764;2023-03-01T16:12:44;2.55;;;1.20;;
44197;SDS011;30157;55.512;37.764;2023-03-01T16:15:13;3.58;;;1.63;;
44197;SDS011;30157;55.512;37.764;2023-03-01T16:17:53;2.22;;;1.10;;
44197;SDS011;30157;55.512;37.764;2023-03-01T16:20:27;2.13;;;1.10;;
44197;SDS011;30157;55.512;37.764;2023-03-01T16:22:55;2.25;;;0.85;;
44197;SDS011;30157;55.512;37.764;2023-03-01T16:25:25;2.03;;;1.13;;
44197;SDS011;30157;55.512;37.764;2023-03-01T16:27:53;2.28;;;1.27;;
44197;SDS011;30157;55.512;37.764;2023-03-01T16:30:21;4.88;;;1.52;;
44197;SDS011;30157;55.512;37.764;2023-03-01T16:32:50;5.00;;;1.40;;
44197;SDS011;30157;55.512;37.764;2023-03-01T16:35:18;5.68;;;2.13;;
44197;SDS011;30157;55.512;37.764;2023-03-01T16:37:46;3.13;;;1.35;;
44197;SDS011;30157;55.512;37.764;2023-03-01T16:40:18;2.80;;;1.30;;
44197;SDS011;30157;55.512;37.764;2023-03-01T16:42:47;2.70;;;1.35;;
44197;SDS011;30157;55.512;37.764;2023-03-01T16:45:13;13.45;;;2.33;;
44197;SDS011;30157;55.512;37.764;2023-03-01T16:47:39;2.45;;;1.25;;
44197;SDS011;30157;55.512;37.764;2023-03-01T16:50:05;2.97;;;1.38;;
44197;SDS011;30157;55.512;37.764;2023-03-01T16:52:31;4.90;;;1.63;;
44197;SDS011;30157;55.512;37.764;2023-03-01T16:54:59;3.80;;;1.48;;
44197;SDS011;30157;55.512;37.764;2023-03-01T16:57:25;4.45;;;1.58;;
44197;SDS011;30157;55.512;37.764;2023-03-01T16:59:51;3.60;;;1.50;;
44197;SDS011;30157;55.512;37.764;2023-03-01T17:02:20;2.90;;;1.38;;
44197;SDS011;30157;55.512;37.764;2023-03-01T17:04:52;3.60;;;1.80;;
44197;SDS011;30157;55.512;37.764;2023-03-01T17:07:19;4.88;;;1.60;;
44197;SDS011;30157;55.512;37.764;2023-03-01T17:09:45;2.97;;;1.20;;
44197;SDS011;30157;55.512;37.764;2023-03-01T17:12:14;3.97;;;1.33;;
44197;SDS011;30157;55.512;37.764;2023-03-01T17:14:41;2.63;;;1.35;;